Cottage Grove, OR

4:43 AM PST on February 14, 2016 (GMT -0800)
Wilson Creek | | Change Station
CLOSE
Current Station
Personal Weather Station
Location: Cottage Grove, OR
Elevation: 1020 ft
Nearby Weather Stations

Elev 1020 ft 43.69 °N, 123.05 °W | Updated 2 seconds ago

Rain
Rain
50.4 °F
Feels Like 50.4 °F
N
3.1
Wind Variable Wind from North
Gusts 6.5 mph

Today
High -- | Low -- °F
--% Chance of Precip.
Yesterday
High -- | Low -- °F
Precip. -- in
Pressure 30.27 in
Visibility 5.0 miles
Clouds Overcast 3300 ft
Dew Point 50 °F
Humidity 98%
Rainfall 0.02 in
Snow Depth Not available.
7:12 AM 5:40 PM
Waxing Crescent, 41% visible
SPECI KEUG 141222Z AUTO 18011KT 5SM -RA BR OVC033 10/08 A3027 RMK AO2 CIG 027 RNW 34 P0003 T01000083 TSNO
Pressure 30.27 in
Visibility 5.0 miles
Clouds Overcast 3300 ft
Dew Point 50 °F
Humidity 98%
Rainfall 0.02 in
Snow Depth Not available.
7:12 AM 5:40 PM
Waxing Crescent, 41% visible
SPECI KEUG 141222Z AUTO 18011KT 5SM -RA BR OVC033 10/08 A3027 RMK AO2 CIG 027 RNW 34 P0003 T01000083 TSNO

10-Day Weather Forecast

Almanac

Astronomy

Feb. 14, 2016 Rise Set
Actual Time
Civil Twilight
Nautical Twilight
Astronomical Twilight
Moon
Length of Visible Light
Length of Day
Tomorrow will be .
, % of the Moon is Illuminated

Today's Extremes

State Highs State Lows

Community

WunderPhotos

Upload Photos

1,892,775 photos uploaded!

WunderBlog® & News

Nearby

Air Quality

  Air Quality AQ Index Pollutant
Not available.

Snow Depth

Station Depth Elevation

Earthquake Activity

City Distance Mag. Time & Date
Minimum magnitude displayed is 2.5.

Coastal Water Temperatures

Place Temperature

Stations

Nearby Weather Stations

Station Location Temp. Windchill Dew Point Humidity Wind Precip. Elev Updated Type
                   

Watches & Warnings

There are currently no watches in effect.